sensor_id;sensor_type;location;lat;lon;timestamp;P1;durP1;ratioP1;P2;durP2;ratioP2
26484;SDS011;18083;50.560;7.262;2022-12-04T00:01:20;22.80;;;11.70;;
26484;SDS011;18083;50.560;7.262;2022-12-04T00:03:50;21.47;;;11.60;;
26484;SDS011;18083;50.560;7.262;2022-12-04T00:06:17;22.50;;;11.87;;
26484;SDS011;18083;50.560;7.262;2022-12-04T00:08:45;24.03;;;10.77;;
26484;SDS011;18083;50.560;7.262;2022-12-04T00:11:13;24.50;;;12.20;;
26484;SDS011;18083;50.560;7.262;2022-12-04T00:13:41;19.27;;;10.83;;
26484;SDS011;18083;50.560;7.262;2022-12-04T00:16:10;19.47;;;10.47;;
26484;SDS011;18083;50.560;7.262;2022-12-04T00:18:37;18.37;;;9.53;;
26484;SDS011;18083;50.560;7.262;2022-12-04T00:21:05;19.27;;;9.57;;
26484;SDS011;18083;50.560;7.262;2022-12-04T00:23:33;16.53;;;10.77;;
26484;SDS011;18083;50.560;7.262;2022-12-04T00:26:01;16.87;;;9.10;;
26484;SDS011;18083;50.560;7.262;2022-12-04T00:28:29;23.63;;;10.03;;
26484;SDS011;18083;50.560;7.262;2022-12-04T00:30:56;16.10;;;9.50;;
26484;SDS011;18083;50.560;7.262;2022-12-04T00:33:23;16.60;;;9.10;;
26484;SDS011;18083;50.560;7.262;2022-12-04T00:36:02;16.30;;;8.97;;
26484;SDS011;18083;50.560;7.262;2022-12-04T00:38:26;13.77;;;8.63;;
26484;SDS011;18083;50.560;7.262;2022-12-04T00:40:53;18.73;;;9.67;;
26484;SDS011;18083;50.560;7.262;2022-12-04T00:43:21;18.43;;;9.30;;
26484;SDS011;18083;50.560;7.262;2022-12-04T00:45:49;16.70;;;8.70;;
26484;SDS011;18083;50.560;7.262;2022-12-04T00:48:16;20.47;;;10.00;;
26484;SDS011;18083;50.560;7.262;2022-12-04T00:50:43;18.07;;;9.60;;
26484;SDS011;18083;50.560;7.262;2022-12-04T00:53:11;18.60;;;9.30;;
26484;SDS011;18083;50.560;7.262;2022-12-04T00:55:39;18.53;;;9.20;;
26484;SDS011;18083;50.560;7.262;2022-12-04T00:58:07;16.70;;;8.30;;
26484;SDS011;18083;50.560;7.262;2022-12-04T01:00:34;19.07;;;9.37;;
26484;SDS011;18083;50.560;7.262;2022-12-04T01:03:02;14.70;;;9.60;;
26484;SDS011;18083;50.560;7.262;2022-12-04T01:05:30;19.20;;;9.53;;
26484;SDS011;18083;50.560;7.262;2022-12-04T01:07:57;20.43;;;9.50;;
26484;SDS011;18083;50.560;7.262;2022-12-04T01:10:24;17.73;;;9.03;;
26484;SDS011;18083;50.560;7.262;2022-12-04T01:12:52;18.27;;;8.97;;
26484;SDS011;18083;50.560;7.262;2022-12-04T01:15:19;20.63;;;9.20;;
26484;SDS011;18083;50.560;7.262;2022-12-04T01:17:46;14.73;;;7.83;;
26484;SDS011;18083;50.560;7.262;2022-12-04T01:20:14;21.10;;;9.67;;
26484;SDS011;18083;50.560;7.262;2022-12-04T01:22:42;16.07;;;9.20;;
26484;SDS011;18083;50.560;7.262;2022-12-04T01:25:09;14.50;;;7.97;;
26484;SDS011;18083;50.560;7.262;2022-12-04T01:27:36;16.20;;;9.23;;
26484;SDS011;18083;50.560;7.262;2022-12-04T01:30:04;20.13;;;9.83;;
26484;SDS011;18083;50.560;7.262;2022-12-04T01:32:32;14.50;;;8.40;;
26484;SDS011;18083;50.560;7.262;2022-12-04T01:34:59;18.60;;;9.37;;
26484;SDS011;18083;50.560;7.262;2022-12-04T01:37:28;16.73;;;8.90;;
26484;SDS011;18083;50.560;7.262;2022-12-04T01:39:55;15.90;;;8.43;;
26484;SDS011;18083;50.560;7.262;2022-12-04T01:42:23;19.53;;;9.23;;
26484;SDS011;18083;50.560;7.262;2022-12-04T01:47:35;14.40;;;8.33;;
26484;SDS011;18083;50.560;7.262;2022-12-04T01:50:03;16.53;;;7.27;;
26484;SDS011;18083;50.560;7.262;2022-12-04T01:52:30;10.60;;;7.43;;
26484;SDS011;18083;50.560;7.262;2022-12-04T01:54:58;14.30;;;8.37;;
26484;SDS011;18083;50.560;7.262;2022-12-04T01:57:26;17.13;;;9.13;;
26484;SDS011;18083;50.560;7.262;2022-12-04T01:59:58;17.67;;;9.47;;
26484;SDS011;18083;50.560;7.262;2022-12-04T02:02:28;18.63;;;9.13;;
26484;SDS011;18083;50.560;7.262;2022-12-04T02:04:55;14.53;;;8.43;;
26484;SDS011;18083;50.560;7.262;2022-12-04T02:07:22;14.60;;;8.37;;
26484;SDS011;18083;50.560;7.262;2022-12-04T02:09:49;14.80;;;9.20;;
26484;SDS011;18083;50.560;7.262;2022-12-04T02:12:30;17.47;;;10.43;;
26484;SDS011;18083;50.560;7.262;2022-12-04T02:15:03;16.37;;;9.00;;
26484;SDS011;18083;50.560;7.262;2022-12-04T02:17:51;15.83;;;8.47;;
26484;SDS011;18083;50.560;7.262;2022-12-04T02:23:06;14.27;;;8.63;;
26484;SDS011;18083;50.560;7.262;2022-12-04T02:25:39;17.57;;;8.83;;
26484;SDS011;18083;50.560;7.262;2022-12-04T02:30:39;15.50;;;8.20;;
26484;SDS011;18083;50.560;7.262;2022-12-04T02:33:17;14.03;;;8.33;;
26484;SDS011;18083;50.560;7.262;2022-12-04T02:35:54;17.40;;;9.10;;
26484;SDS011;18083;50.560;7.262;2022-12-04T02:38:22;14.70;;;8.50;;
26484;SDS011;18083;50.560;7.262;2022-12-04T02:40:58;14.33;;;7.97;;
26484;SDS011;18083;50.560;7.262;2022-12-04T02:43:29;15.50;;;7.83;;
26484;SDS011;18083;50.560;7.262;2022-12-04T02:45:59;12.73;;;8.63;;
26484;SDS011;18083;50.560;7.262;2022-12-04T02:48:27;13.40;;;9.00;;
26484;SDS011;18083;50.560;7.262;2022-12-04T02:50:56;17.23;;;9.17;;
26484;SDS011;18083;50.560;7.262;2022-12-04T02:53:27;15.87;;;9.00;;
26484;SDS011;18083;50.560;7.262;2022-12-04T02:55:54;15.20;;;8.67;;
26484;SDS011;18083;50.560;7.262;2022-12-04T02:58:28;15.20;;;8.83;;
26484;SDS011;18083;50.560;7.262;2022-12-04T03:00:52;19.27;;;8.37;;
26484;SDS011;18083;50.560;7.262;2022-12-04T03:03:23;16.47;;;8.73;;
26484;SDS011;18083;50.560;7.262;2022-12-04T03:08:25;17.53;;;8.30;;
26484;SDS011;18083;50.560;7.262;2022-12-04T03:10:54;16.53;;;9.10;;
26484;SDS011;18083;50.560;7.262;2022-12-04T03:13:23;14.63;;;7.80;;
26484;SDS011;18083;50.560;7.262;2022-12-04T03:16:02;16.47;;;8.23;;
26484;SDS011;18083;50.560;7.262;2022-12-04T03:21:11;15.27;;;7.90;;
26484;SDS011;18083;50.560;7.262;2022-12-04T03:23:40;15.97;;;8.30;;
26484;SDS011;18083;50.560;7.262;2022-12-04T03:26:40;12.93;;;7.83;;
26484;SDS011;18083;50.560;7.262;2022-12-04T03:31:47;12.90;;;7.97;;
26484;SDS011;18083;50.560;7.262;2022-12-04T03:33:53;12.60;;;7.03;;
26484;SDS011;18083;50.560;7.262;2022-12-04T03:36:27;11.93;;;7.13;;
26484;SDS011;18083;50.560;7.262;2022-12-04T03:38:53;12.27;;;7.80;;
26484;SDS011;18083;50.560;7.262;2022-12-04T03:41:30;16.00;;;8.03;;
26484;SDS011;18083;50.560;7.262;2022-12-04T03:46:34;15.23;;;8.83;;
26484;SDS011;18083;50.560;7.262;2022-12-04T03:51:41;14.37;;;8.87;;
26484;SDS011;18083;50.560;7.262;2022-12-04T03:54:10;16.33;;;8.13;;
26484;SDS011;18083;50.560;7.262;2022-12-04T03:56:35;13.23;;;7.33;;
26484;SDS011;18083;50.560;7.262;2022-12-04T03:59:04;15.53;;;7.53;;
26484;SDS011;18083;50.560;7.262;2022-12-04T04:01:31;15.57;;;8.23;;
26484;SDS011;18083;50.560;7.262;2022-12-04T04:03:59;11.80;;;8.07;;
26484;SDS011;18083;50.560;7.262;2022-12-04T04:06:30;15.17;;;8.70;;
26484;SDS011;18083;50.560;7.262;2022-12-04T04:08:58;18.40;;;8.27;;
26484;SDS011;18083;50.560;7.262;2022-12-04T04:11:27;15.77;;;8.10;;
26484;SDS011;18083;50.560;7.262;2022-12-04T04:14:02;17.53;;;9.23;;
26484;SDS011;18083;50.560;7.262;2022-12-04T04:16:53;17.30;;;8.17;;
26484;SDS011;18083;50.560;7.262;2022-12-04T04:19:37;15.27;;;8.37;;
26484;SDS011;18083;50.560;7.262;2022-12-04T04:22:24;16.10;;;8.77;;
26484;SDS011;18083;50.560;7.262;2022-12-04T04:25:16;18.90;;;9.00;;
26484;SDS011;18083;50.560;7.262;2022-12-04T04:27:51;13.43;;;7.93;;
26484;SDS011;18083;50.560;7.262;2022-12-04T04:30:19;13.97;;;8.93;;
26484;SDS011;18083;50.560;7.262;2022-12-04T04:33:07;16.20;;;8.47;;
26484;SDS011;18083;50.560;7.262;2022-12-04T04:35:28;15.63;;;8.20;;
26484;SDS011;18083;50.560;7.262;2022-12-04T04:38:00;16.67;;;8.67;;
26484;SDS011;18083;50.560;7.262;2022-12-04T04:40:31;14.97;;;8.63;;
26484;SDS011;18083;50.560;7.262;2022-12-04T04:45:36;14.63;;;9.47;;
26484;SDS011;18083;50.560;7.262;2022-12-04T04:47:57;15.40;;;9.13;;
26484;SDS011;18083;50.560;7.262;2022-12-04T04:50:23;14.40;;;8.73;;
26484;SDS011;18083;50.560;7.262;2022-12-04T04:52:54;16.80;;;8.13;;
26484;SDS011;18083;50.560;7.262;2022-12-04T04:55:22;14.20;;;8.27;;
26484;SDS011;18083;50.560;7.262;2022-12-04T04:57:49;14.50;;;8.43;;
26484;SDS011;18083;50.560;7.262;2022-12-04T05:00:19;15.03;;;8.90;;
26484;SDS011;18083;50.560;7.262;2022-12-04T05:02:46;13.33;;;8.03;;
26484;SDS011;18083;50.560;7.262;2022-12-04T05:05:15;14.83;;;8.37;;
26484;SDS011;18083;50.560;7.262;2022-12-04T05:07:42;12.07;;;8.23;;
26484;SDS011;18083;50.560;7.262;2022-12-04T05:10:10;14.00;;;7.90;;
26484;SDS011;18083;50.560;7.262;2022-12-04T05:12:37;16.30;;;8.00;;
26484;SDS011;18083;50.560;7.262;2022-12-04T05:15:05;18.73;;;9.23;;
26484;SDS011;18083;50.560;7.262;2022-12-04T05:17:33;12.20;;;8.33;;
26484;SDS011;18083;50.560;7.262;2022-12-04T05:20:01;19.23;;;9.53;;
26484;SDS011;18083;50.560;7.262;2022-12-04T05:22:29;17.00;;;9.23;;
26484;SDS011;18083;50.560;7.262;2022-12-04T05:24:57;13.83;;;8.27;;
26484;SDS011;18083;50.560;7.262;2022-12-04T05:27:25;16.03;;;8.53;;
26484;SDS011;18083;50.560;7.262;2022-12-04T05:29:53;15.47;;;9.70;;
26484;SDS011;18083;50.560;7.262;2022-12-04T05:32:22;13.67;;;9.13;;
26484;SDS011;18083;50.560;7.262;2022-12-04T05:34:50;17.07;;;9.90;;
26484;SDS011;18083;50.560;7.262;2022-12-04T05:37:17;20.83;;;9.63;;
26484;SDS011;18083;50.560;7.262;2022-12-04T05:39:45;17.60;;;9.03;;
26484;SDS011;18083;50.560;7.262;2022-12-04T05:42:12;16.20;;;8.70;;
26484;SDS011;18083;50.560;7.262;2022-12-04T05:44:40;18.60;;;8.93;;
26484;SDS011;18083;50.560;7.262;2022-12-04T05:47:07;16.77;;;8.43;;
26484;SDS011;18083;50.560;7.262;2022-12-04T05:49:34;16.20;;;7.97;;
26484;SDS011;18083;50.560;7.262;2022-12-04T05:52:03;15.40;;;8.83;;
26484;SDS011;18083;50.560;7.262;2022-12-04T05:54:31;19.97;;;8.83;;
26484;SDS011;18083;50.560;7.262;2022-12-04T05:56:58;20.23;;;10.47;;
26484;SDS011;18083;50.560;7.262;2022-12-04T05:59:25;16.47;;;8.70;;
26484;SDS011;18083;50.560;7.262;2022-12-04T06:01:53;16.20;;;8.27;;
26484;SDS011;18083;50.560;7.262;2022-12-04T06:04:20;15.57;;;9.53;;
26484;SDS011;18083;50.560;7.262;2022-12-04T06:06:48;18.90;;;10.17;;
26484;SDS011;18083;50.560;7.262;2022-12-04T06:09:15;19.60;;;10.80;;
26484;SDS011;18083;50.560;7.262;2022-12-04T06:11:42;17.03;;;9.37;;
26484;SDS011;18083;50.560;7.262;2022-12-04T06:14:11;14.97;;;8.90;;
26484;SDS011;18083;50.560;7.262;2022-12-04T06:16:39;17.90;;;9.73;;
26484;SDS011;18083;50.560;7.262;2022-12-04T06:19:08;18.43;;;9.27;;
26484;SDS011;18083;50.560;7.262;2022-12-04T06:21:37;19.90;;;9.90;;
26484;SDS011;18083;50.560;7.262;2022-12-04T06:24:05;19.63;;;11.07;;
26484;SDS011;18083;50.560;7.262;2022-12-04T06:26:33;19.43;;;9.57;;
26484;SDS011;18083;50.560;7.262;2022-12-04T06:29:00;22.47;;;11.93;;
26484;SDS011;18083;50.560;7.262;2022-12-04T06:31:28;20.53;;;11.10;;
26484;SDS011;18083;50.560;7.262;2022-12-04T06:33:56;18.83;;;10.53;;
26484;SDS011;18083;50.560;7.262;2022-12-04T06:36:24;18.10;;;11.10;;
26484;SDS011;18083;50.560;7.262;2022-12-04T06:38:53;21.07;;;10.53;;
26484;SDS011;18083;50.560;7.262;2022-12-04T06:41:20;20.63;;;11.13;;
26484;SDS011;18083;50.560;7.262;2022-12-04T06:43:48;21.30;;;10.73;;
26484;SDS011;18083;50.560;7.262;2022-12-04T06:46:18;21.07;;;9.57;;
26484;SDS011;18083;50.560;7.262;2022-12-04T06:48:46;18.30;;;9.83;;
26484;SDS011;18083;50.560;7.262;2022-12-04T06:51:14;20.30;;;11.00;;
26484;SDS011;18083;50.560;7.262;2022-12-04T06:53:42;21.67;;;10.43;;
26484;SDS011;18083;50.560;7.262;2022-12-04T06:56:10;19.00;;;10.80;;
26484;SDS011;18083;50.560;7.262;2022-12-04T06:58:38;18.60;;;11.43;;
26484;SDS011;18083;50.560;7.262;2022-12-04T07:01:06;18.73;;;11.23;;
26484;SDS011;18083;50.560;7.262;2022-12-04T07:03:34;24.20;;;11.80;;
26484;SDS011;18083;50.560;7.262;2022-12-04T07:08:43;21.40;;;11.43;;
26484;SDS011;18083;50.560;7.262;2022-12-04T07:11:11;18.33;;;10.40;;
26484;SDS011;18083;50.560;7.262;2022-12-04T07:13:39;24.03;;;11.37;;
26484;SDS011;18083;50.560;7.262;2022-12-04T07:16:07;23.40;;;11.53;;
26484;SDS011;18083;50.560;7.262;2022-12-04T07:18:35;20.23;;;10.93;;
26484;SDS011;18083;50.560;7.262;2022-12-04T07:21:06;25.00;;;12.30;;
26484;SDS011;18083;50.560;7.262;2022-12-04T07:23:34;25.93;;;13.60;;
26484;SDS011;18083;50.560;7.262;2022-12-04T07:26:05;26.23;;;13.43;;
26484;SDS011;18083;50.560;7.262;2022-12-04T07:28:33;24.30;;;12.43;;
26484;SDS011;18083;50.560;7.262;2022-12-04T07:31:05;19.07;;;10.57;;
26484;SDS011;18083;50.560;7.262;2022-12-04T07:33:32;23.63;;;12.77;;
26484;SDS011;18083;50.560;7.262;2022-12-04T07:36:00;22.77;;;11.40;;
26484;SDS011;18083;50.560;7.262;2022-12-04T07:38:29;20.50;;;12.53;;
26484;SDS011;18083;50.560;7.262;2022-12-04T07:40:56;23.03;;;11.13;;
26484;SDS011;18083;50.560;7.262;2022-12-04T07:43:24;19.53;;;11.20;;
26484;SDS011;18083;50.560;7.262;2022-12-04T07:45:51;19.60;;;12.13;;
26484;SDS011;18083;50.560;7.262;2022-12-04T07:48:19;23.13;;;11.33;;
26484;SDS011;18083;50.560;7.262;2022-12-04T07:50:46;18.80;;;12.17;;
26484;SDS011;18083;50.560;7.262;2022-12-04T07:53:14;22.30;;;11.57;;
26484;SDS011;18083;50.560;7.262;2022-12-04T07:55:41;19.43;;;10.03;;
26484;SDS011;18083;50.560;7.262;2022-12-04T07:58:08;17.20;;;10.90;;
26484;SDS011;18083;50.560;7.262;2022-12-04T08:00:36;21.00;;;12.33;;
26484;SDS011;18083;50.560;7.262;2022-12-04T08:03:03;27.37;;;12.37;;
26484;SDS011;18083;50.560;7.262;2022-12-04T08:05:30;20.70;;;12.53;;
26484;SDS011;18083;50.560;7.262;2022-12-04T08:07:58;21.30;;;12.97;;
26484;SDS011;18083;50.560;7.262;2022-12-04T08:10:25;21.60;;;11.57;;
26484;SDS011;18083;50.560;7.262;2022-12-04T08:12:52;22.50;;;12.20;;
26484;SDS011;18083;50.560;7.262;2022-12-04T08:15:20;23.00;;;11.53;;
26484;SDS011;18083;50.560;7.262;2022-12-04T08:17:47;21.93;;;12.60;;
26484;SDS011;18083;50.560;7.262;2022-12-04T08:20:14;24.07;;;11.97;;
26484;SDS011;18083;50.560;7.262;2022-12-04T08:22:42;24.27;;;12.67;;
26484;SDS011;18083;50.560;7.262;2022-12-04T08:25:09;25.73;;;13.83;;
26484;SDS011;18083;50.560;7.262;2022-12-04T08:27:37;27.63;;;13.10;;
26484;SDS011;18083;50.560;7.262;2022-12-04T08:30:04;27.00;;;12.57;;
26484;SDS011;18083;50.560;7.262;2022-12-04T08:32:32;21.07;;;11.03;;
26484;SDS011;18083;50.560;7.262;2022-12-04T08:34:59;16.80;;;10.10;;
26484;SDS011;18083;50.560;7.262;2022-12-04T08:37:27;20.57;;;11.23;;
26484;SDS011;18083;50.560;7.262;2022-12-04T08:39:54;21.73;;;11.10;;
26484;SDS011;18083;50.560;7.262;2022-12-04T08:42:23;19.67;;;11.57;;
26484;SDS011;18083;50.560;7.262;2022-12-04T08:44:50;18.73;;;10.10;;
26484;SDS011;18083;50.560;7.262;2022-12-04T08:47:18;23.80;;;11.00;;
26484;SDS011;18083;50.560;7.262;2022-12-04T08:49:45;17.10;;;9.70;;
26484;SDS011;18083;50.560;7.262;2022-12-04T08:52:12;17.67;;;9.20;;
26484;SDS011;18083;50.560;7.262;2022-12-04T08:54:40;18.53;;;11.37;;
26484;SDS011;18083;50.560;7.262;2022-12-04T08:57:07;16.43;;;9.80;;
26484;SDS011;18083;50.560;7.262;2022-12-04T08:59:34;20.30;;;10.37;;
26484;SDS011;18083;50.560;7.262;2022-12-04T09:02:02;19.97;;;10.47;;
26484;SDS011;18083;50.560;7.262;2022-12-04T09:04:29;17.20;;;10.00;;
26484;SDS011;18083;50.560;7.262;2022-12-04T09:06:56;18.20;;;10.93;;
26484;SDS011;18083;50.560;7.262;2022-12-04T09:09:24;16.93;;;10.23;;
26484;SDS011;18083;50.560;7.262;2022-12-04T09:11:51;17.20;;;9.53;;
26484;SDS011;18083;50.560;7.262;2022-12-04T09:14:18;18.00;;;11.03;;
26484;SDS011;18083;50.560;7.262;2022-12-04T09:16:48;19.30;;;10.00;;
26484;SDS011;18083;50.560;7.262;2022-12-04T09:19:15;18.47;;;10.23;;
26484;SDS011;18083;50.560;7.262;2022-12-04T09:21:42;18.40;;;10.00;;
26484;SDS011;18083;50.560;7.262;2022-12-04T09:24:10;19.50;;;11.30;;
26484;SDS011;18083;50.560;7.262;2022-12-04T09:26:37;20.43;;;11.57;;
26484;SDS011;18083;50.560;7.262;2022-12-04T09:29:05;20.13;;;10.93;;
26484;SDS011;18083;50.560;7.262;2022-12-04T09:31:32;21.17;;;12.33;;
26484;SDS011;18083;50.560;7.262;2022-12-04T09:34:00;19.83;;;11.27;;
26484;SDS011;18083;50.560;7.262;2022-12-04T09:36:28;17.00;;;10.23;;
26484;SDS011;18083;50.560;7.262;2022-12-04T09:38:56;22.90;;;12.27;;
26484;SDS011;18083;50.560;7.262;2022-12-04T09:41:26;17.33;;;11.07;;
26484;SDS011;18083;50.560;7.262;2022-12-04T09:43:57;22.07;;;12.30;;
26484;SDS011;18083;50.560;7.262;2022-12-04T09:46:35;19.07;;;10.23;;
26484;SDS011;18083;50.560;7.262;2022-12-04T09:49:02;20.90;;;12.10;;
26484;SDS011;18083;50.560;7.262;2022-12-04T09:51:28;21.80;;;11.70;;
26484;SDS011;18083;50.560;7.262;2022-12-04T09:53:58;20.27;;;10.97;;
26484;SDS011;18083;50.560;7.262;2022-12-04T09:56:26;22.63;;;11.50;;
26484;SDS011;18083;50.560;7.262;2022-12-04T09:58:56;25.03;;;13.07;;
26484;SDS011;18083;50.560;7.262;2022-12-04T10:01:23;20.87;;;12.30;;
26484;SDS011;18083;50.560;7.262;2022-12-04T10:03:52;25.50;;;12.30;;
26484;SDS011;18083;50.560;7.262;2022-12-04T10:07:09;24.20;;;10.40;;
26484;SDS011;18083;50.560;7.262;2022-12-04T10:09:00;21.17;;;11.23;;
26484;SDS011;18083;50.560;7.262;2022-12-04T10:18:59;24.10;;;14.77;;
26484;SDS011;18083;50.560;7.262;2022-12-04T10:21:37;21.70;;;11.10;;
26484;SDS011;18083;50.560;7.262;2022-12-04T10:24:23;20.60;;;12.40;;
26484;SDS011;18083;50.560;7.262;2022-12-04T10:26:50;22.37;;;12.37;;
26484;SDS011;18083;50.560;7.262;2022-12-04T10:29:26;20.07;;;12.03;;
26484;SDS011;18083;50.560;7.262;2022-12-04T10:31:50;19.00;;;12.07;;
26484;SDS011;18083;50.560;7.262;2022-12-04T10:34:27;20.07;;;10.87;;
26484;SDS011;18083;50.560;7.262;2022-12-04T10:36:59;18.83;;;10.67;;
26484;SDS011;18083;50.560;7.262;2022-12-04T10:39:45;13.60;;;9.90;;
26484;SDS011;18083;50.560;7.262;2022-12-04T10:41:56;18.83;;;10.27;;
26484;SDS011;18083;50.560;7.262;2022-12-04T10:44:22;19.10;;;9.70;;
26484;SDS011;18083;50.560;7.262;2022-12-04T10:46:50;19.63;;;11.07;;
26484;SDS011;18083;50.560;7.262;2022-12-04T10:49:28;21.10;;;10.10;;
26484;SDS011;18083;50.560;7.262;2022-12-04T10:51:56;18.47;;;9.47;;
26484;SDS011;18083;50.560;7.262;2022-12-04T10:54:26;17.27;;;10.07;;
26484;SDS011;18083;50.560;7.262;2022-12-04T10:56:56;17.67;;;9.93;;
26484;SDS011;18083;50.560;7.262;2022-12-04T10:59:24;18.10;;;10.33;;
26484;SDS011;18083;50.560;7.262;2022-12-04T11:01:57;17.87;;;11.50;;
26484;SDS011;18083;50.560;7.262;2022-12-04T11:04:27;22.93;;;11.13;;
26484;SDS011;18083;50.560;7.262;2022-12-04T11:07:00;17.90;;;10.47;;
26484;SDS011;18083;50.560;7.262;2022-12-04T11:09:27;18.33;;;11.00;;
26484;SDS011;18083;50.560;7.262;2022-12-04T11:12:03;18.87;;;11.33;;
26484;SDS011;18083;50.560;7.262;2022-12-04T11:14:24;21.63;;;11.93;;
26484;SDS011;18083;50.560;7.262;2022-12-04T11:17:02;22.40;;;11.17;;
26484;SDS011;18083;50.560;7.262;2022-12-04T11:19:31;16.33;;;10.53;;
26484;SDS011;18083;50.560;7.262;2022-12-04T11:22:10;18.27;;;10.37;;
26484;SDS011;18083;50.560;7.262;2022-12-04T11:24:34;20.23;;;10.10;;
26484;SDS011;18083;50.560;7.262;2022-12-04T11:27:02;15.10;;;9.50;;
26484;SDS011;18083;50.560;7.262;2022-12-04T11:29:31;16.73;;;9.07;;
26484;SDS011;18083;50.560;7.262;2022-12-04T11:31:59;21.23;;;10.97;;
26484;SDS011;18083;50.560;7.262;2022-12-04T11:34:32;19.53;;;9.27;;
26484;SDS011;18083;50.560;7.262;2022-12-04T11:36:56;23.70;;;12.27;;
26484;SDS011;18083;50.560;7.262;2022-12-04T11:39:29;19.67;;;10.80;;
26484;SDS011;18083;50.560;7.262;2022-12-04T11:42:12;16.37;;;10.00;;
26484;SDS011;18083;50.560;7.262;2022-12-04T11:44:34;18.77;;;9.57;;
26484;SDS011;18083;50.560;7.262;2022-12-04T11:47:02;19.90;;;10.43;;
26484;SDS011;18083;50.560;7.262;2022-12-04T11:49:30;20.83;;;11.07;;
26484;SDS011;18083;50.560;7.262;2022-12-04T11:52:06;22.13;;;11.60;;
26484;SDS011;18083;50.560;7.262;2022-12-04T11:54:52;16.30;;;10.97;;
26484;SDS011;18083;50.560;7.262;2022-12-04T11:57:23;15.97;;;9.83;;
26484;SDS011;18083;50.560;7.262;2022-12-04T11:59:54;18.60;;;11.20;;
26484;SDS011;18083;50.560;7.262;2022-12-04T12:10:09;16.97;;;11.20;;
26484;SDS011;18083;50.560;7.262;2022-12-04T12:20:18;16.57;;;8.70;;
26484;SDS011;18083;50.560;7.262;2022-12-04T12:30:37;19.37;;;9.90;;
26484;SDS011;18083;50.560;7.262;2022-12-04T12:33:18;15.87;;;9.63;;
26484;SDS011;18083;50.560;7.262;2022-12-04T12:35:49;16.37;;;10.17;;
26484;SDS011;18083;50.560;7.262;2022-12-04T12:38:20;14.50;;;9.37;;
26484;SDS011;18083;50.560;7.262;2022-12-04T12:40:52;17.13;;;9.90;;
26484;SDS011;18083;50.560;7.262;2022-12-04T12:43:24;14.00;;;9.10;;
26484;SDS011;18083;50.560;7.262;2022-12-04T12:51:14;14.07;;;8.57;;
26484;SDS011;18083;50.560;7.262;2022-12-04T12:53:38;15.77;;;9.10;;
26484;SDS011;18083;50.560;7.262;2022-12-04T12:56:06;13.80;;;8.53;;
26484;SDS011;18083;50.560;7.262;2022-12-04T12:58:39;14.90;;;8.80;;
26484;SDS011;18083;50.560;7.262;2022-12-04T13:01:27;18.53;;;10.60;;
26484;SDS011;18083;50.560;7.262;2022-12-04T13:06:38;19.43;;;10.37;;
26484;SDS011;18083;50.560;7.262;2022-12-04T13:09:16;17.70;;;9.67;;
26484;SDS011;18083;50.560;7.262;2022-12-04T13:11:44;20.93;;;10.77;;
26484;SDS011;18083;50.560;7.262;2022-12-04T13:14:12;18.70;;;10.07;;
26484;SDS011;18083;50.560;7.262;2022-12-04T13:16:40;15.27;;;10.17;;
26484;SDS011;18083;50.560;7.262;2022-12-04T13:19:32;16.70;;;9.27;;
26484;SDS011;18083;50.560;7.262;2022-12-04T13:21:40;12.87;;;7.93;;
26484;SDS011;18083;50.560;7.262;2022-12-04T13:34:37;14.93;;;8.83;;
26484;SDS011;18083;50.560;7.262;2022-12-04T13:42:24;17.27;;;9.60;;
26484;SDS011;18083;50.560;7.262;2022-12-04T13:44:57;14.20;;;9.33;;
26484;SDS011;18083;50.560;7.262;2022-12-04T13:47:24;14.67;;;8.40;;
26484;SDS011;18083;50.560;7.262;2022-12-04T13:50:04;11.70;;;6.73;;
26484;SDS011;18083;50.560;7.262;2022-12-04T13:52:23;16.30;;;9.00;;
26484;SDS011;18083;50.560;7.262;2022-12-04T13:54:57;14.50;;;7.07;;
26484;SDS011;18083;50.560;7.262;2022-12-04T13:57:25;13.53;;;8.03;;
26484;SDS011;18083;50.560;7.262;2022-12-04T14:00:05;12.87;;;8.60;;
26484;SDS011;18083;50.560;7.262;2022-12-04T14:02:34;14.67;;;7.93;;
26484;SDS011;18083;50.560;7.262;2022-12-04T14:05:00;13.40;;;7.77;;
26484;SDS011;18083;50.560;7.262;2022-12-04T14:07:32;14.23;;;7.47;;
26484;SDS011;18083;50.560;7.262;2022-12-04T14:10:02;13.10;;;7.50;;
26484;SDS011;18083;50.560;7.262;2022-12-04T14:12:31;12.63;;;7.27;;
26484;SDS011;18083;50.560;7.262;2022-12-04T14:14:59;11.50;;;8.47;;
26484;SDS011;18083;50.560;7.262;2022-12-04T14:17:29;14.03;;;8.57;;
26484;SDS011;18083;50.560;7.262;2022-12-04T14:19:57;16.17;;;8.50;;
26484;SDS011;18083;50.560;7.262;2022-12-04T14:25:49;12.03;;;8.10;;
26484;SDS011;18083;50.560;7.262;2022-12-04T14:30:15;12.07;;;7.87;;
26484;SDS011;18083;50.560;7.262;2022-12-04T14:32:39;16.27;;;8.63;;
26484;SDS011;18083;50.560;7.262;2022-12-04T14:35:18;13.97;;;8.37;;
26484;SDS011;18083;50.560;7.262;2022-12-04T14:37:45;16.60;;;9.27;;
26484;SDS011;18083;50.560;7.262;2022-12-04T14:40:19;15.33;;;8.50;;
26484;SDS011;18083;50.560;7.262;2022-12-04T14:42:45;13.97;;;8.43;;
26484;SDS011;18083;50.560;7.262;2022-12-04T14:45:33;16.93;;;8.93;;
26484;SDS011;18083;50.560;7.262;2022-12-04T14:50:40;15.50;;;9.60;;
26484;SDS011;18083;50.560;7.262;2022-12-04T14:53:11;17.27;;;10.23;;
26484;SDS011;18083;50.560;7.262;2022-12-04T14:55:55;19.20;;;10.47;;
26484;SDS011;18083;50.560;7.262;2022-12-04T14:58:19;16.73;;;9.53;;
26484;SDS011;18083;50.560;7.262;2022-12-04T15:00:57;20.63;;;10.37;;
26484;SDS011;18083;50.560;7.262;2022-12-04T15:03:25;21.43;;;12.33;;
26484;SDS011;18083;50.560;7.262;2022-12-04T15:06:11;16.30;;;10.73;;
26484;SDS011;18083;50.560;7.262;2022-12-04T15:08:34;19.97;;;10.30;;
26484;SDS011;18083;50.560;7.262;2022-12-04T15:11:01;28.10;;;14.00;;
26484;SDS011;18083;50.560;7.262;2022-12-04T15:13:48;20.67;;;12.70;;
26484;SDS011;18083;50.560;7.262;2022-12-04T15:16:19;22.53;;;12.20;;
26484;SDS011;18083;50.560;7.262;2022-12-04T15:18:54;18.97;;;11.10;;
26484;SDS011;18083;50.560;7.262;2022-12-04T15:21:34;24.13;;;11.83;;
26484;SDS011;18083;50.560;7.262;2022-12-04T15:23:56;23.17;;;11.37;;
26484;SDS011;18083;50.560;7.262;2022-12-04T15:26:24;18.50;;;10.53;;
26484;SDS011;18083;50.560;7.262;2022-12-04T15:28:56;20.27;;;10.37;;
26484;SDS011;18083;50.560;7.262;2022-12-04T15:31:24;21.63;;;9.90;;
26484;SDS011;18083;50.560;7.262;2022-12-04T15:33:54;21.10;;;11.27;;
26484;SDS011;18083;50.560;7.262;2022-12-04T15:38:53;19.50;;;10.80;;
26484;SDS011;18083;50.560;7.262;2022-12-04T15:41:33;21.27;;;11.77;;
26484;SDS011;18083;50.560;7.262;2022-12-04T15:44:01;23.70;;;13.67;;
26484;SDS011;18083;50.560;7.262;2022-12-04T15:46:33;18.57;;;11.60;;
26484;SDS011;18083;50.560;7.262;2022-12-04T15:49:14;20.70;;;11.47;;
26484;SDS011;18083;50.560;7.262;2022-12-04T15:51:33;19.57;;;11.60;;
26484;SDS011;18083;50.560;7.262;2022-12-04T15:54:00;26.90;;;13.70;;
26484;SDS011;18083;50.560;7.262;2022-12-04T15:56:28;23.67;;;12.20;;
26484;SDS011;18083;50.560;7.262;2022-12-04T15:58:59;20.33;;;11.33;;
26484;SDS011;18083;50.560;7.262;2022-12-04T16:01:25;25.63;;;13.40;;
26484;SDS011;18083;50.560;7.262;2022-12-04T16:03:53;29.57;;;16.33;;
26484;SDS011;18083;50.560;7.262;2022-12-04T16:06:22;24.27;;;14.37;;
26484;SDS011;18083;50.560;7.262;2022-12-04T16:08:53;28.40;;;13.87;;
26484;SDS011;18083;50.560;7.262;2022-12-04T16:11:23;28.63;;;15.33;;
26484;SDS011;18083;50.560;7.262;2022-12-04T16:16:36;26.30;;;13.30;;